createdAt,value
2023-03-16T00:00:10.989Z,968.9500
2023-03-16T00:01:13.271Z,968.9300
2023-03-16T00:02:15.611Z,968.9300
2023-03-16T00:03:17.897Z,968.9100
2023-03-16T00:04:20.226Z,968.8700
2023-03-16T00:05:22.351Z,968.8700
2023-03-16T00:06:25.819Z,968.8500
2023-03-16T00:07:24.768Z,968.8500
2023-03-16T00:08:27.058Z,968.8500
2023-03-16T00:09:29.295Z,968.8300
2023-03-16T00:10:31.595Z,968.8700
2023-03-16T00:11:33.881Z,968.8900
2023-03-16T00:12:36.167Z,968.8900
2023-03-16T00:13:38.451Z,968.8700
2023-03-16T00:14:40.794Z,968.9100
2023-03-16T00:15:40.910Z,968.9300
2023-03-16T00:16:43.306Z,968.8900
2023-03-16T00:17:45.422Z,968.9300
2023-03-16T00:18:47.719Z,968.9300
2023-03-16T00:19:50.063Z,968.9300
2023-03-16T00:20:52.319Z,968.9100
2023-03-16T00:21:52.496Z,968.9100
2023-03-16T00:22:54.825Z,968.9100
2023-03-16T00:23:57.138Z,968.9300
2023-03-16T00:24:59.596Z,968.9300
2023-03-16T00:26:01.801Z,968.9300
2023-03-16T00:27:04.096Z,968.9300
2023-03-16T00:28:04.298Z,968.9300
2023-03-16T00:29:06.654Z,968.8900
2023-03-16T00:30:09.100Z,968.8700
2023-03-16T00:31:11.342Z,968.8500
2023-03-16T00:32:13.683Z,968.8300
2023-03-16T00:33:13.861Z,968.8300
2023-03-16T00:34:16.137Z,968.8500
2023-03-16T00:35:18.449Z,968.8500
2023-03-16T00:36:20.730Z,968.8500
2023-03-16T00:37:23.065Z,968.8500
2023-03-16T00:38:25.314Z,968.8300
2023-03-16T00:39:25.475Z,968.8100
2023-03-16T00:40:28.183Z,968.7900
2023-03-16T00:41:30.068Z,968.7900
2023-03-16T00:42:32.382Z,968.7900
2023-03-16T00:43:34.745Z,968.7400
2023-03-16T00:44:37.057Z,968.7700
2023-03-16T00:45:37.402Z,968.7700
2023-03-16T00:46:39.607Z,968.7700
2023-03-16T00:47:41.960Z,968.7700
2023-03-16T00:48:44.298Z,968.7700
2023-03-16T00:49:46.652Z,968.7900
2023-03-16T00:50:49.002Z,968.7600
2023-03-16T00:51:49.116Z,968.7400
2023-03-16T00:52:51.441Z,968.7400
2023-03-16T00:53:53.806Z,968.7200
2023-03-16T00:54:56.182Z,968.7000
2023-03-16T00:55:56.392Z,968.6800
2023-03-16T00:56:58.558Z,968.6400
2023-03-16T00:58:00.872Z,968.6600
2023-03-16T00:59:03.222Z,968.6600
2023-03-16T01:00:05.566Z,968.6400
2023-03-16T01:01:08.050Z,968.6200
2023-03-16T01:02:08.103Z,968.6600
2023-03-16T01:03:10.476Z,968.6400
2023-03-16T01:04:12.676Z,968.6000
2023-03-16T01:05:15.020Z,968.5800
2023-03-16T01:06:17.483Z,968.5800
2023-03-16T01:07:19.687Z,968.5600
2023-03-16T01:08:19.890Z,968.5400
2023-03-16T01:09:22.212Z,968.5200
2023-03-16T01:10:24.504Z,968.5200
2023-03-16T01:11:26.868Z,968.5600
2023-03-16T01:12:29.199Z,968.5200
2023-03-16T01:13:29.398Z,968.5400
2023-03-16T01:14:31.715Z,968.5400
2023-03-16T01:15:34.052Z,968.5200
2023-03-16T01:16:36.503Z,968.5200
2023-03-16T01:17:38.695Z,968.5200
2023-03-16T01:18:40.975Z,968.4800
2023-03-16T01:19:41.127Z,968.4800
2023-03-16T01:20:43.434Z,968.4600
2023-03-16T01:21:45.758Z,968.4400
2023-03-16T01:22:48.054Z,968.4000
2023-03-16T01:23:50.360Z,968.4400
2023-03-16T01:24:52.671Z,968.4400
2023-03-16T01:25:52.888Z,968.4200
2023-03-16T01:26:55.248Z,968.4000
2023-03-16T01:27:57.441Z,968.4000
2023-03-16T01:28:59.772Z,968.4000
2023-03-16T01:30:02.121Z,968.3800
2023-03-16T01:31:02.457Z,968.3600
2023-03-16T01:32:04.623Z,968.3600
2023-03-16T01:33:07.053Z,968.3600
2023-03-16T01:34:09.283Z,968.3400
2023-03-16T01:35:11.651Z,968.3400
2023-03-16T01:36:13.968Z,968.3400
2023-03-16T01:37:14.150Z,968.3600
2023-03-16T01:38:16.407Z,968.3400
2023-03-16T01:39:18.721Z,968.3600
2023-03-16T01:40:21.045Z,968.3400
2023-03-16T01:41:23.359Z,968.3000
2023-03-16T01:42:25.660Z,968.3200
2023-03-16T01:43:25.823Z,968.3000
2023-03-16T01:44:28.196Z,968.3000
2023-03-16T01:45:30.553Z,968.3000
2023-03-16T01:46:32.910Z,968.3000
2023-03-16T01:47:35.191Z,968.2900
2023-03-16T01:48:35.310Z,968.2700
2023-03-16T01:49:37.649Z,968.2900
2023-03-16T01:50:39.951Z,968.2500
2023-03-16T01:51:42.271Z,968.2700
2023-03-16T01:52:44.723Z,968.2300
2023-03-16T01:53:46.960Z,968.2300
2023-03-16T01:54:47.187Z,968.2100
2023-03-16T01:55:49.521Z,968.2100
2023-03-16T01:56:51.832Z,968.1900
2023-03-16T01:57:54.142Z,968.1700
2023-03-16T01:58:56.417Z,968.1700
2023-03-16T01:59:58.713Z,968.1700
2023-03-16T02:00:58.946Z,968.1900
2023-03-16T02:02:01.088Z,968.1900
2023-03-16T02:03:03.461Z,968.1500
2023-03-16T02:04:05.637Z,968.1700
2023-03-16T02:05:05.754Z,968.1300
2023-03-16T02:06:08.084Z,968.1500
2023-03-16T02:07:10.349Z,968.2100
2023-03-16T02:08:10.515Z,968.2100
2023-03-16T02:09:12.795Z,968.2500
2023-03-16T02:10:15.120Z,968.2500
2023-03-16T02:11:17.409Z,968.2700
2023-03-16T02:12:19.714Z,968.2500
2023-03-16T02:13:22.059Z,968.2500
2023-03-16T02:14:22.124Z,968.2100
2023-03-16T02:15:24.352Z,968.1900
2023-03-16T02:16:26.619Z,968.1700
2023-03-16T02:17:28.869Z,968.2100
2023-03-16T02:18:31.259Z,968.2100
2023-03-16T02:19:33.378Z,968.2100
2023-03-16T02:20:35.642Z,968.1900
2023-03-16T02:21:37.937Z,968.1900
2023-03-16T02:22:40.276Z,968.1500
2023-03-16T02:23:40.440Z,968.1500
2023-03-16T02:24:42.731Z,968.1500
2023-03-16T02:25:45.005Z,968.1700
2023-03-16T02:26:47.292Z,968.1900
2023-03-16T02:27:49.569Z,968.2100
2023-03-16T02:28:51.953Z,968.2300
2023-03-16T02:29:54.152Z,968.2100
2023-03-16T02:30:54.360Z,968.2100
2023-03-16T02:31:56.597Z,968.2100
2023-03-16T02:32:58.964Z,968.1900
2023-03-16T02:34:01.335Z,968.2300
2023-03-16T02:35:03.523Z,968.2100
2023-03-16T02:36:05.862Z,968.2300
2023-03-16T02:37:05.910Z,968.2100
2023-03-16T02:38:08.154Z,968.2100
2023-03-16T02:39:10.479Z,968.1900
2023-03-16T02:40:12.754Z,968.1900
2023-03-16T02:41:15.019Z,968.1700
2023-03-16T02:42:17.278Z,968.1900
2023-03-16T02:43:19.575Z,968.1700
2023-03-16T02:44:19.767Z,968.1700
2023-03-16T02:45:22.070Z,968.1500
2023-03-16T02:46:24.394Z,968.1500
2023-03-16T02:47:26.676Z,968.1500
2023-03-16T02:48:28.986Z,968.1500
2023-03-16T02:49:31.433Z,968.1700
2023-03-16T02:50:31.449Z,968.1700
2023-03-16T02:51:33.709Z,968.1700
2023-03-16T02:52:35.973Z,968.1500
2023-03-16T02:53:38.239Z,968.1500
2023-03-16T02:54:40.485Z,968.1300
2023-03-16T02:55:42.721Z,968.1300
2023-03-16T02:56:45.007Z,968.1100
2023-03-16T02:57:47.341Z,968.0900
2023-03-16T02:58:47.498Z,968.1500
2023-03-16T02:59:49.811Z,968.1700
2023-03-16T03:00:52.073Z,968.1900
2023-03-16T03:01:54.379Z,968.1700
2023-03-16T03:02:56.677Z,968.1700
2023-03-16T03:03:58.980Z,968.1900
2023-03-16T03:05:01.305Z,968.1700
2023-03-16T03:06:01.441Z,968.1300
2023-03-16T03:07:03.739Z,968.1300
2023-03-16T03:08:06.050Z,968.1300
2023-03-16T03:09:08.366Z,968.0700
2023-03-16T03:10:49.636Z,968.0500
2023-03-16T03:11:51.766Z,968.0500
2023-03-16T03:12:54.077Z,968.0700
2023-03-16T03:13:56.374Z,968.0500
2023-03-16T03:14:56.559Z,968.0500
2023-03-16T03:15:58.963Z,968.0500
2023-03-16T03:17:01.206Z,968.0500
2023-03-16T03:18:03.543Z,968.0500
2023-03-16T03:19:05.886Z,968.0700
2023-03-16T03:20:08.234Z,968.0500
2023-03-16T03:21:08.408Z,968.0700
2023-03-16T03:22:10.716Z,968.0700
2023-03-16T03:23:13.058Z,968.0700
2023-03-16T03:24:15.344Z,968.0900
2023-03-16T03:25:17.684Z,968.0900
2023-03-16T03:26:17.993Z,968.0700
2023-03-16T03:27:20.215Z,968.0700
2023-03-16T03:28:22.484Z,968.0900
2023-03-16T03:29:24.771Z,968.0500
2023-03-16T03:30:27.301Z,968.0500
2023-03-16T03:31:29.476Z,968.0500
2023-03-16T03:32:31.601Z,968.0100
2023-03-16T03:33:33.922Z,968.0100
2023-03-16T03:34:34.041Z,967.9500
2023-03-16T03:35:36.327Z,967.9300
2023-03-16T03:36:38.556Z,967.9300
2023-03-16T03:37:40.842Z,967.9100
2023-03-16T03:38:43.143Z,967.8900
2023-03-16T03:39:45.393Z,967.9100
2023-03-16T03:40:47.657Z,967.9300
2023-03-16T03:41:47.793Z,967.9100
2023-03-16T03:42:50.038Z,967.8900
2023-03-16T03:43:52.295Z,967.9100
2023-03-16T03:44:52.422Z,967.9100
2023-03-16T03:45:54.833Z,967.9500
2023-03-16T03:46:57.188Z,967.9500
2023-03-16T03:47:57.360Z,967.9500
2023-03-16T03:48:59.497Z,967.9500
2023-03-16T03:50:01.848Z,967.9100
2023-03-16T03:51:04.209Z,967.9300
2023-03-16T03:52:06.649Z,967.9300
2023-03-16T03:53:06.743Z,967.9300
2023-03-16T03:54:09.086Z,967.9100
2023-03-16T03:55:11.369Z,967.9100
2023-03-16T03:56:13.687Z,967.9300
2023-03-16T03:57:16.064Z,967.9300
2023-03-16T03:58:18.339Z,967.9300
2023-03-16T03:59:18.495Z,967.9100
2023-03-16T04:00:20.852Z,967.9100
2023-03-16T04:01:23.107Z,967.9300
2023-03-16T04:02:25.591Z,967.8900
2023-03-16T04:03:27.809Z,967.8700
2023-03-16T04:04:30.072Z,967.8700
2023-03-16T04:05:30.228Z,967.8500
2023-03-16T04:06:32.583Z,967.8300
2023-03-16T04:07:34.890Z,967.8300
2023-03-16T04:08:37.197Z,967.8200
2023-03-16T04:09:39.533Z,967.7800
2023-03-16T04:10:41.875Z,967.8200
2023-03-16T04:11:42.060Z,967.8200
2023-03-16T04:12:44.488Z,967.8000
2023-03-16T04:13:46.699Z,967.8200
2023-03-16T04:14:49.036Z,967.8200
2023-03-16T04:15:51.359Z,967.8200
2023-03-16T04:16:51.564Z,967.8300
2023-03-16T04:17:53.927Z,967.8300
2023-03-16T04:18:56.155Z,967.8300
2023-03-16T04:19:58.457Z,967.8200
2023-03-16T04:22:11.851Z,967.8300
2023-03-16T04:23:14.067Z,967.8500
2023-03-16T04:24:16.345Z,967.8700
2023-03-16T04:25:16.523Z,967.8300
2023-03-16T04:26:18.824Z,967.8500
2023-03-16T04:27:21.151Z,967.8300
2023-03-16T04:28:23.518Z,967.8200
2023-03-16T04:29:25.861Z,967.7800
2023-03-16T04:30:26.496Z,967.7800
2023-03-16T04:31:28.396Z,967.8000
2023-03-16T04:32:30.790Z,967.8000
2023-03-16T04:33:33.237Z,967.8000
2023-03-16T04:34:35.493Z,967.8200
2023-03-16T04:35:35.750Z,967.8000
2023-03-16T04:36:38.047Z,967.8000
2023-03-16T04:37:40.438Z,967.8200
2023-03-16T04:38:42.880Z,967.7800
2023-03-16T04:39:45.155Z,967.7800
2023-03-16T04:40:45.371Z,967.7400
2023-03-16T04:41:47.732Z,967.7200
2023-03-16T04:42:50.098Z,967.6800
2023-03-16T04:43:52.453Z,967.7200
2023-03-16T04:44:52.586Z,967.6600
2023-03-16T04:45:55.000Z,967.7000
2023-03-16T04:46:57.301Z,967.6800
2023-03-16T04:47:59.677Z,967.6600
2023-03-16T04:48:59.981Z,967.6800
2023-03-16T04:50:02.197Z,967.6600
2023-03-16T04:51:02.390Z,967.6600
2023-03-16T04:52:04.771Z,967.6600
2023-03-16T04:53:07.149Z,967.6600
2023-03-16T04:54:09.516Z,967.6800
2023-03-16T04:55:09.715Z,967.6800
2023-03-16T04:56:12.103Z,967.6400
2023-03-16T04:57:14.480Z,967.6600
2023-03-16T04:58:16.887Z,967.6400
2023-03-16T04:59:19.399Z,967.6400
2023-03-16T05:00:21.694Z,967.6600
2023-03-16T05:01:24.046Z,967.6200
2023-03-16T05:02:26.395Z,967.6200
2023-03-16T05:03:26.611Z,967.6000
2023-03-16T05:04:29.087Z,967.6000
2023-03-16T05:05:31.422Z,967.5800
2023-03-16T05:06:33.625Z,967.5800
2023-03-16T05:07:35.975Z,967.6000
2023-03-16T05:08:36.200Z,967.5800
2023-03-16T05:09:38.600Z,967.5800
2023-03-16T05:10:40.823Z,967.6000
2023-03-16T05:11:43.178Z,967.6000
2023-03-16T05:12:45.545Z,967.5800
2023-03-16T05:13:45.722Z,967.5800
2023-03-16T05:14:48.081Z,967.5600
2023-03-16T05:15:50.445Z,967.5400
2023-03-16T05:16:52.747Z,967.5600
2023-03-16T05:17:55.049Z,967.5600
2023-03-16T05:18:57.419Z,967.5600
2023-03-16T05:19:57.710Z,967.6000
2023-03-16T05:20:59.971Z,967.6000
2023-03-16T05:22:02.247Z,967.5800
2023-03-16T05:23:04.546Z,967.5800
2023-03-16T05:24:06.905Z,967.5600
2023-03-16T05:25:07.093Z,967.5600
2023-03-16T05:26:09.428Z,967.5600
2023-03-16T05:27:11.799Z,967.5600
2023-03-16T05:28:14.168Z,967.5800
2023-03-16T05:29:16.520Z,967.5800
2023-03-16T05:30:16.830Z,967.5600
2023-03-16T05:31:19.153Z,967.5600
2023-03-16T05:32:21.400Z,967.5800
2023-03-16T05:33:23.719Z,967.5800
2023-03-16T05:34:26.035Z,967.5800
2023-03-16T05:35:26.361Z,967.6000
2023-03-16T05:36:28.575Z,967.6000
2023-03-16T05:37:30.910Z,967.6000
2023-03-16T05:38:33.233Z,967.5600
2023-03-16T05:39:35.526Z,967.5400
2023-03-16T05:40:37.908Z,967.5200
2023-03-16T05:41:38.011Z,967.5000
2023-03-16T05:42:40.313Z,967.5400
2023-03-16T05:43:42.635Z,967.5200
2023-03-16T05:44:44.871Z,967.5200
2023-03-16T05:45:47.272Z,967.5400
2023-03-16T05:47:45.484Z,967.5000
2023-03-16T05:48:47.709Z,967.4800
2023-03-16T05:49:49.979Z,967.4800
2023-03-16T05:50:52.378Z,967.4000
2023-03-16T05:51:54.596Z,967.4000
2023-03-16T05:52:54.763Z,967.4000
2023-03-16T05:53:57.060Z,967.4200
2023-03-16T05:54:59.332Z,967.3600
2023-03-16T05:56:01.740Z,967.3500
2023-03-16T05:57:03.932Z,967.3500
2023-03-16T05:58:06.215Z,967.3500
2023-03-16T05:59:08.494Z,967.3500
2023-03-16T06:00:08.627Z,967.3500
2023-03-16T06:01:10.986Z,967.3300
2023-03-16T06:02:13.125Z,967.3500
2023-03-16T06:03:15.516Z,967.3800
2023-03-16T06:04:17.770Z,967.3600
2023-03-16T06:05:19.942Z,967.3600
2023-03-16T06:06:22.259Z,967.4000
2023-03-16T06:07:24.533Z,967.4200
2023-03-16T06:08:24.640Z,967.3800
2023-03-16T06:09:26.912Z,967.4000
2023-03-16T06:10:29.699Z,967.4200
2023-03-16T06:11:31.454Z,967.4200
2023-03-16T06:12:33.672Z,967.4600
2023-03-16T06:13:35.931Z,967.4600
2023-03-16T06:14:38.208Z,967.4800
2023-03-16T06:15:40.511Z,967.5000
2023-03-16T06:16:40.906Z,967.4800
2023-03-16T06:17:43.056Z,967.5000
2023-03-16T06:18:45.339Z,967.5400
2023-03-16T06:19:47.618Z,967.5000
2023-03-16T06:20:49.934Z,967.5200
2023-03-16T06:21:50.288Z,967.5000
2023-03-16T06:22:52.400Z,967.5000
2023-03-16T06:23:54.637Z,967.5200
2023-03-16T06:24:56.951Z,967.5000
2023-03-16T06:25:59.288Z,967.5400
2023-03-16T06:27:01.763Z,967.5600
2023-03-16T06:28:03.876Z,967.5800
2023-03-16T06:29:04.035Z,967.6000
2023-03-16T06:30:06.360Z,967.5600
2023-03-16T06:31:08.781Z,967.6200
2023-03-16T06:32:11.107Z,967.5800
2023-03-16T06:33:13.337Z,967.6400
2023-03-16T06:34:15.639Z,967.6200
2023-03-16T06:35:15.832Z,967.6800
2023-03-16T06:36:18.160Z,967.6400
2023-03-16T06:37:20.444Z,967.7000
2023-03-16T06:38:22.694Z,967.6800
2023-03-16T06:39:25.003Z,967.6800
2023-03-16T06:40:27.625Z,967.7000
2023-03-16T06:41:27.372Z,967.7200
2023-03-16T06:42:29.763Z,967.7200
2023-03-16T06:43:31.951Z,967.7200
2023-03-16T06:44:34.236Z,967.7400
2023-03-16T06:45:36.637Z,967.7400
2023-03-16T06:46:38.877Z,967.7400
2023-03-16T06:47:39.146Z,967.7800
2023-03-16T06:48:41.371Z,967.7000
2023-03-16T06:49:43.685Z,967.6600
2023-03-16T06:50:46.044Z,967.6400
2023-03-16T06:51:48.437Z,967.6200
2023-03-16T06:52:48.703Z,967.6200
2023-03-16T06:53:51.157Z,967.5600
2023-03-16T06:54:53.654Z,967.5800
2023-03-16T06:55:56.193Z,967.6600
2023-03-16T06:56:56.596Z,967.6400
2023-03-16T06:57:59.158Z,967.6600
2023-03-16T06:59:01.638Z,967.6800
2023-03-16T07:00:04.185Z,967.6800
2023-03-16T07:01:04.609Z,967.6600
2023-03-16T07:02:07.120Z,967.6600
2023-03-16T07:03:09.764Z,967.6400
2023-03-16T07:04:10.116Z,967.6800
2023-03-16T07:05:12.616Z,967.6400
2023-03-16T07:06:13.015Z,967.6800
2023-03-16T07:07:15.566Z,967.7200
2023-03-16T07:08:18.227Z,967.7400
2023-03-16T07:09:18.448Z,967.8000
2023-03-16T07:10:20.929Z,967.7800
2023-03-16T07:11:23.316Z,967.8300
2023-03-16T07:12:23.625Z,967.8200
2023-03-16T07:13:26.057Z,967.8300
2023-03-16T07:14:28.463Z,967.8300
2023-03-16T07:15:28.722Z,967.8700
2023-03-16T07:16:31.155Z,967.8900
2023-03-16T07:17:33.522Z,967.9100
2023-03-16T07:18:33.754Z,967.9100
2023-03-16T07:19:36.116Z,967.9300
2023-03-16T07:20:38.494Z,967.8900
2023-03-16T07:21:40.943Z,967.8900
2023-03-16T07:22:43.219Z,967.9100
2023-03-16T07:23:43.528Z,967.9300
2023-03-16T07:24:45.798Z,967.9500
2023-03-16T07:25:48.144Z,967.9500
2023-03-16T07:26:50.502Z,967.9300
2023-03-16T07:27:51.061Z,967.9500
2023-03-16T07:28:53.181Z,967.9300
2023-03-16T07:29:55.454Z,967.9300
2023-03-16T07:31:03.839Z,967.9300
2023-03-16T07:32:00.148Z,967.9300
2023-03-16T07:33:00.340Z,967.9700
2023-03-16T07:34:02.549Z,967.9900
2023-03-16T07:35:04.864Z,967.9900
2023-03-16T07:36:07.193Z,967.9700
2023-03-16T07:37:09.572Z,968.0100
2023-03-16T07:38:11.830Z,968.0100
2023-03-16T07:39:12.063Z,968.0100
2023-03-16T07:40:14.371Z,967.9700
2023-03-16T07:41:16.719Z,968.0300
2023-03-16T07:42:19.061Z,968.0500
2023-03-16T07:43:19.342Z,968.0500
2023-03-16T07:44:21.734Z,968.0500
2023-03-16T07:45:23.961Z,968.0500
2023-03-16T07:46:26.535Z,968.0700
2023-03-16T07:47:28.601Z,968.0500
2023-03-16T07:48:30.921Z,968.0700
2023-03-16T07:49:31.197Z,968.0700
2023-03-16T07:50:33.444Z,968.0500
2023-03-16T07:51:35.785Z,968.0700
2023-03-16T07:52:38.160Z,968.0500
2023-03-16T07:53:40.478Z,968.0100
2023-03-16T07:54:40.795Z,968.0300
2023-03-16T07:55:43.074Z,968.0100
2023-03-16T07:56:49.305Z,968.0100
2023-03-16T07:57:47.749Z,968.0100
2023-03-16T07:58:50.108Z,967.9900
2023-03-16T07:59:50.327Z,968.0100
2023-03-16T08:00:52.685Z,968.0100
2023-03-16T08:01:55.059Z,968.0300
2023-03-16T08:02:57.436Z,968.0300
2023-03-16T08:03:57.682Z,968.0300
2023-03-16T08:04:59.951Z,968.0700
2023-03-16T08:06:02.251Z,968.0900
2023-03-16T08:07:04.598Z,968.0700
2023-03-16T08:08:06.913Z,968.0100
2023-03-16T08:09:09.258Z,967.9900
2023-03-16T08:10:09.547Z,967.9700
2023-03-16T08:11:11.799Z,967.9500
2023-03-16T08:12:14.141Z,967.9500
2023-03-16T08:13:16.498Z,967.8900
2023-03-16T08:14:18.843Z,967.8700
2023-03-16T08:15:19.048Z,967.8700
2023-03-16T08:16:22.179Z,967.8300
2023-03-16T08:17:23.694Z,967.8300
2023-03-16T08:18:26.019Z,967.8200
2023-03-16T08:19:28.360Z,967.8200
2023-03-16T08:20:28.911Z,967.7800
2023-03-16T08:21:30.864Z,967.8000
2023-03-16T08:22:33.180Z,967.8000
2023-03-16T08:23:35.483Z,967.7600
2023-03-16T08:24:37.824Z,967.7800
2023-03-16T08:25:40.116Z,967.7800
2023-03-16T08:26:40.275Z,967.7600
2023-03-16T08:27:42.610Z,967.7200
2023-03-16T08:28:44.987Z,967.7000
2023-03-16T08:29:47.274Z,967.7000
2023-03-16T08:30:49.725Z,967.7200
2023-03-16T08:31:49.758Z,967.7200
2023-03-16T08:32:52.130Z,967.7000
2023-03-16T08:33:54.453Z,967.7000
2023-03-16T08:34:56.811Z,967.7000
2023-03-16T08:35:59.290Z,967.6600
2023-03-16T08:36:59.368Z,967.6600
2023-03-16T08:38:01.728Z,967.6200
2023-03-16T08:39:07.208Z,967.5800
2023-03-16T08:40:06.431Z,967.5800
2023-03-16T08:41:08.866Z,967.5400
2023-03-16T08:42:08.924Z,967.5400
2023-03-16T08:43:11.238Z,967.5000
2023-03-16T08:44:13.582Z,967.4800
2023-03-16T08:45:15.926Z,967.4800
2023-03-16T08:46:18.306Z,967.4600
2023-03-16T08:47:18.412Z,967.4200
2023-03-16T08:48:20.751Z,967.4000
2023-03-16T08:49:23.060Z,967.3800
2023-03-16T08:50:25.427Z,967.3500
2023-03-16T08:51:27.661Z,967.3500
2023-03-16T08:52:29.814Z,967.3500
2023-03-16T08:53:32.077Z,967.3500
2023-03-16T08:54:32.308Z,967.3300
2023-03-16T08:55:34.446Z,967.4000
2023-03-16T08:56:36.746Z,967.4400
2023-03-16T08:57:38.949Z,967.4600
2023-03-16T08:58:41.188Z,967.4800
2023-03-16T08:59:43.427Z,967.5000
2023-03-16T09:00:47.440Z,967.5000
2023-03-16T09:01:48.158Z,967.5200
2023-03-16T09:02:48.265Z,967.5200
2023-03-16T09:03:50.688Z,967.4800
2023-03-16T09:04:53.011Z,967.4800
2023-03-16T09:05:55.370Z,967.4800
2023-03-16T09:07:08.897Z,967.4800
2023-03-16T09:07:57.974Z,967.4600
2023-03-16T09:09:00.366Z,967.4800
2023-03-16T09:10:02.742Z,967.4800
2023-03-16T09:11:05.132Z,967.4800
2023-03-16T09:12:05.441Z,967.4800
2023-03-16T09:13:07.682Z,967.5000
2023-03-16T09:14:10.012Z,967.4800
2023-03-16T09:15:12.296Z,967.4800
2023-03-16T09:16:14.630Z,967.4800
2023-03-16T09:17:14.828Z,967.4400
2023-03-16T09:18:17.154Z,967.4600
2023-03-16T09:19:19.532Z,967.4200
2023-03-16T09:20:26.123Z,967.4000
2023-03-16T09:21:24.261Z,967.3500
2023-03-16T09:22:24.580Z,967.3500
2023-03-16T09:23:26.849Z,967.3600
2023-03-16T09:24:29.212Z,967.3600
2023-03-16T09:25:32.049Z,967.4000
2023-03-16T09:26:34.001Z,967.4400
2023-03-16T09:27:34.206Z,967.4600
2023-03-16T09:28:36.546Z,967.4600
2023-03-16T09:29:38.926Z,967.4800
2023-03-16T09:30:39.099Z,967.5000
2023-03-16T09:31:41.471Z,967.4600
2023-03-16T09:32:43.883Z,967.4400
2023-03-16T09:33:46.087Z,967.4000
2023-03-16T09:34:48.378Z,967.3800
2023-03-16T09:35:50.803Z,967.3800
2023-03-16T09:36:50.895Z,967.3500
2023-03-16T09:38:05.511Z,967.3600
2023-03-16T09:38:55.533Z,967.3300
2023-03-16T09:40:03.263Z,967.3300
2023-03-16T09:41:00.214Z,967.2900
2023-03-16T09:42:00.432Z,967.2500
2023-03-16T09:43:02.746Z,967.2100
2023-03-16T09:44:05.048Z,967.2100
2023-03-16T09:45:07.353Z,967.2100
2023-03-16T09:46:09.776Z,967.1900
2023-03-16T09:47:12.122Z,967.2300
2023-03-16T09:48:12.403Z,967.2100
2023-03-16T09:49:14.648Z,967.2500
2023-03-16T09:50:17.058Z,967.2300
2023-03-16T09:51:19.357Z,967.2500
2023-03-16T09:52:21.592Z,967.2300
2023-03-16T09:53:21.851Z,967.2100
2023-03-16T09:54:24.074Z,967.2100
2023-03-16T09:56:09.527Z,967.1900
2023-03-16T09:57:11.764Z,967.1700
2023-03-16T09:58:14.092Z,967.1700
2023-03-16T09:59:16.469Z,967.1900
2023-03-16T10:00:18.649Z,967.1500
2023-03-16T10:01:18.865Z,967.1500
2023-03-16T10:02:21.261Z,967.1300
2023-03-16T10:03:23.376Z,967.1300
2023-03-16T10:04:25.691Z,967.1300
2023-03-16T10:05:27.988Z,967.1500
2023-03-16T10:06:30.309Z,967.1300
2023-03-16T10:07:30.452Z,967.1300
2023-03-16T10:08:32.662Z,967.1100
2023-03-16T10:09:35.019Z,967.1100
2023-03-16T10:10:37.168Z,967.1300
2023-03-16T10:11:39.451Z,967.1500
2023-03-16T10:13:39.908Z,967.1300
2023-03-16T10:14:42.242Z,967.1300
2023-03-16T10:15:42.315Z,967.1300
2023-03-16T10:16:44.673Z,967.1300
2023-03-16T10:17:46.971Z,967.1300
2023-03-16T10:18:49.237Z,967.1100
2023-03-16T10:19:51.667Z,967.0500
2023-03-16T10:20:53.865Z,966.9500
2023-03-16T10:21:54.001Z,966.8700
2023-03-16T10:22:56.268Z,966.8500
2023-03-16T10:23:58.600Z,966.8300
2023-03-16T10:25:01.019Z,966.8300
2023-03-16T10:26:03.233Z,966.8200
2023-03-16T10:27:03.416Z,966.8300
2023-03-16T10:28:05.762Z,966.8300
2023-03-16T10:29:08.036Z,966.8200
2023-03-16T10:30:10.384Z,966.8000
2023-03-16T10:31:12.724Z,966.8200
2023-03-16T10:32:15.018Z,966.8300
2023-03-16T10:33:17.469Z,966.8300
2023-03-16T10:34:17.539Z,966.8200
2023-03-16T10:35:19.951Z,966.8200
2023-03-16T10:36:22.165Z,966.8200
2023-03-16T10:37:24.447Z,966.8200
2023-03-16T10:38:26.741Z,966.7800
2023-03-16T10:39:29.247Z,966.7400
2023-03-16T10:40:31.446Z,966.7000
2023-03-16T10:41:31.408Z,966.7200
2023-03-16T10:42:33.637Z,966.7200
2023-03-16T10:43:35.886Z,966.6800
2023-03-16T10:44:38.152Z,966.7000
2023-03-16T10:45:40.456Z,966.7400
2023-03-16T10:46:42.769Z,966.7800
2023-03-16T10:47:44.949Z,966.7600
2023-03-16T10:48:47.211Z,966.7600
2023-03-16T10:49:47.293Z,966.7200
2023-03-16T10:50:49.578Z,966.7000
2023-03-16T10:51:51.805Z,966.7000
2023-03-16T10:52:54.072Z,966.6600
2023-03-16T10:53:56.294Z,966.6400
2023-03-16T10:54:58.560Z,966.5600
2023-03-16T10:56:00.810Z,966.5400
2023-03-16T10:57:03.063Z,966.5200
2023-03-16T10:58:05.323Z,966.4800
2023-03-16T10:59:05.442Z,966.5000
2023-03-16T11:00:07.700Z,966.4800
2023-03-16T11:01:10.110Z,966.4800
2023-03-16T11:02:12.241Z,966.5000
2023-03-16T11:03:14.532Z,966.5000
2023-03-16T11:04:17.010Z,966.4800
2023-03-16T11:05:19.129Z,966.4000
2023-03-16T11:06:21.470Z,966.3800
2023-03-16T11:07:21.687Z,966.3600
2023-03-16T11:08:23.926Z,966.3800
2023-03-16T11:09:26.290Z,966.3500
2023-03-16T11:10:28.605Z,966.3600
2023-03-16T11:11:30.979Z,966.3500
2023-03-16T11:12:31.129Z,966.3300
2023-03-16T11:13:33.464Z,966.3100
2023-03-16T11:14:35.798Z,966.2900
2023-03-16T11:15:38.143Z,966.3100
2023-03-16T11:16:40.505Z,966.3100
2023-03-16T11:17:42.817Z,966.3100
2023-03-16T11:18:42.996Z,966.2700
2023-03-16T11:19:46.074Z,966.2700
2023-03-16T11:20:47.656Z,966.2900
2023-03-16T11:21:50.084Z,966.3100
2023-03-16T11:22:50.136Z,966.3500
2023-03-16T11:23:52.429Z,966.3600
2023-03-16T11:24:54.736Z,966.3500
2023-03-16T11:25:57.064Z,966.3800
2023-03-16T11:26:59.413Z,966.3800
2023-03-16T11:28:01.710Z,966.3600
2023-03-16T11:29:01.874Z,966.3600
2023-03-16T11:30:04.197Z,966.3600
2023-03-16T11:31:06.533Z,966.3600
2023-03-16T11:32:08.914Z,966.4000
2023-03-16T11:33:11.146Z,966.4000
2023-03-16T11:34:13.359Z,966.4000
2023-03-16T11:35:15.667Z,966.4000
2023-03-16T11:36:15.855Z,966.3800
2023-03-16T11:37:18.230Z,966.3800
2023-03-16T11:38:20.486Z,966.3600
2023-03-16T11:39:22.779Z,966.4000
2023-03-16T11:40:25.128Z,966.3600
2023-03-16T11:41:27.448Z,966.3300
2023-03-16T11:42:27.633Z,966.3300
2023-03-16T11:43:29.951Z,966.3100
2023-03-16T11:44:32.200Z,966.3100
2023-03-16T11:45:34.486Z,966.2700
2023-03-16T11:46:36.857Z,966.2700
2023-03-16T11:47:36.991Z,966.2700
2023-03-16T11:48:39.250Z,966.2500
2023-03-16T11:49:41.553Z,966.2700
2023-03-16T11:50:43.853Z,966.2100
2023-03-16T11:51:46.113Z,966.2100
2023-03-16T11:52:48.540Z,966.1900
2023-03-16T11:53:50.732Z,966.1900
2023-03-16T11:54:53.003Z,966.1900
2023-03-16T11:55:53.157Z,966.1700
2023-03-16T11:56:55.478Z,966.1500
2023-03-16T11:57:57.804Z,966.1300
2023-03-16T11:59:00.110Z,966.1100
2023-03-16T12:00:02.538Z,966.1300
2023-03-16T12:01:02.603Z,966.1300
2023-03-16T12:02:04.983Z,966.1100
2023-03-16T12:03:07.522Z,966.1100
2023-03-16T12:04:09.680Z,966.0900
2023-03-16T12:05:11.825Z,966.0700
2023-03-16T12:06:23.134Z,966.1100
2023-03-16T12:07:16.385Z,966.0900
2023-03-16T12:08:16.530Z,966.0900
2023-03-16T12:09:18.832Z,966.0500
2023-03-16T12:10:21.071Z,966.0300
2023-03-16T12:11:23.357Z,966.0300